Аэропорт: Мирный. Мирный

ICAO: UERR

METAR:
2021-07-28 12:30:00
UERR 281230Z 08003MPS 4000 HZ NSC 24/16 Q1008 R07/CLRD60 NOSIG RMK QFE726/0968
METAR:
2021-07-28 11:00:00
TAF UERR 281100Z 2812/2912 11003G08MPS 2000 HZ SCT020 TX29/2906Z TN16/2818Z TEMPO 2812/2821 0500 HZ VV002